createdAt,value
2017-11-30T00:00:42.526Z,-2.2
2017-11-30T00:02:02.250Z,-2.3
2017-11-30T00:03:24.543Z,-2.3
2017-11-30T00:04:46.804Z,-2.3
2017-11-30T00:06:06.517Z,-2.3
2017-11-30T00:07:26.268Z,-2.3
2017-11-30T00:08:51.111Z,-2.4
2017-11-30T00:10:26.092Z,-2.4
2017-11-30T00:11:53.404Z,-2.5
2017-11-30T00:13:15.707Z,-2.6
2017-11-30T00:14:37.954Z,-2.6
2017-11-30T00:16:00.248Z,-2.6
2017-11-30T00:17:19.955Z,-2.6
2017-11-30T00:18:39.671Z,-2.7
2017-11-30T00:20:04.490Z,-2.5
2017-11-30T00:21:24.243Z,-2.5
2017-11-30T00:22:43.969Z,-2.5
2017-11-30T00:24:03.732Z,-2.6
2017-11-30T00:25:26.059Z,-2.6
2017-11-30T00:26:50.931Z,-2.6
2017-11-30T00:28:13.178Z,-2.7
2017-11-30T00:29:32.885Z,-2.8
2017-11-30T00:30:52.642Z,-2.9
2017-11-30T00:32:12.434Z,-3
2017-11-30T00:33:37.218Z,-3
2017-11-30T00:34:56.943Z,-3.1
2017-11-30T00:36:19.209Z,-3.1
2017-11-30T00:37:46.607Z,-3.1
2017-11-30T00:39:08.847Z,-3
2017-11-30T00:40:33.621Z,-2.9
2017-11-30T00:41:53.342Z,-2.9
2017-11-30T00:43:15.650Z,-3
2017-11-30T00:44:35.431Z,-3
2017-11-30T00:46:00.250Z,-2.9
2017-11-30T00:47:25.037Z,-3
2017-11-30T00:48:44.779Z,-3
2017-11-30T00:50:04.551Z,-3
2017-11-30T00:51:24.269Z,-3.1
2017-11-30T00:52:46.588Z,-3.3
2017-11-30T00:54:11.372Z,-3.3
2017-11-30T00:55:31.118Z,-3.3
2017-11-30T00:56:50.884Z,-3.2
2017-11-30T00:58:10.672Z,-3.2
2017-11-30T00:59:40.534Z,-3.2
2017-11-30T01:01:12.973Z,-3
2017-11-30T01:02:32.695Z,-2.9
2017-11-30T01:03:52.445Z,-2.8
2017-11-30T01:05:12.181Z,-2.7
2017-11-30T01:06:31.939Z,-2.5
2017-11-30T01:08:01.791Z,-2.4
2017-11-30T01:09:26.573Z,-2.3
2017-11-30T01:10:48.872Z,-2.2
2017-11-30T01:12:11.164Z,-2.1
2017-11-30T01:13:30.953Z,-1.9
2017-11-30T01:14:50.701Z,-1.7
2017-11-30T01:16:10.462Z,-1.7
2017-11-30T01:17:35.311Z,-1.5
2017-11-30T01:18:57.576Z,-1.5
2017-11-30T01:20:22.352Z,-1.5
2017-11-30T01:22:07.409Z,-1.5
2017-11-30T01:23:27.135Z,-1.5
2017-11-30T01:24:46.861Z,-1.4
2017-11-30T01:26:11.650Z,-0.4
2017-11-30T01:27:36.440Z,-0.1
2017-11-30T01:28:58.672Z,0
2017-11-30T01:30:26.050Z,-0.1
2017-11-30T01:31:45.815Z,-0.1
2017-11-30T01:33:05.582Z,-0.3
2017-11-30T01:34:27.868Z,-0.4
2017-11-30T01:35:47.598Z,-0.5
2017-11-30T01:37:07.323Z,-0.6
2017-11-30T01:38:27.044Z,-0.6
2017-11-30T01:39:46.751Z,-0.7
2017-11-30T01:41:09.002Z,-0.7
2017-11-30T01:42:31.313Z,-0.8
2017-11-30T01:43:51.045Z,-0.8
2017-11-30T01:45:10.786Z,-0.8
2017-11-30T01:46:30.552Z,-0.8
2017-11-30T01:47:50.288Z,-0.8
2017-11-30T01:49:12.549Z,-0.9
2017-11-30T01:50:32.295Z,-0.9
2017-11-30T01:51:54.552Z,-0.9
2017-11-30T01:53:14.268Z,-0.9
2017-11-30T01:54:36.564Z,-0.9
2017-11-30T01:55:56.308Z,-0.9
2017-11-30T01:57:23.649Z,-0.8
2017-11-30T01:58:43.363Z,-0.9
2017-11-30T02:00:10.699Z,-0.9
2017-11-30T02:01:32.989Z,-0.9
2017-11-30T02:02:52.727Z,-0.9
2017-11-30T02:04:12.441Z,-0.8
2017-11-30T02:05:32.154Z,-0.8
2017-11-30T02:06:51.873Z,-0.9
2017-11-30T02:08:14.157Z,-0.9
2017-11-30T02:09:36.389Z,-0.9
2017-11-30T02:10:56.183Z,-1
2017-11-30T02:12:18.435Z,-1.1
2017-11-30T02:13:40.714Z,-1
2017-11-30T02:15:00.477Z,-0.9
2017-11-30T02:16:20.221Z,-0.9
2017-11-30T02:17:42.470Z,-0.9
2017-11-30T02:19:09.783Z,-0.8
2017-11-30T02:20:34.570Z,-0.9
2017-11-30T02:21:54.310Z,-0.8
2017-11-30T02:23:19.098Z,-0.8
2017-11-30T02:24:38.834Z,-0.9
2017-11-30T02:26:01.094Z,-1
2017-11-30T02:27:20.846Z,-0.9
2017-11-30T02:28:40.602Z,-1
2017-11-30T02:30:00.394Z,-1
2017-11-30T02:31:22.647Z,-1.1
2017-11-30T02:32:42.389Z,-1.2
2017-11-30T02:34:02.133Z,-1.2
2017-11-30T02:35:29.455Z,-1.1
2017-11-30T02:36:51.759Z,-1
2017-11-30T02:38:14.013Z,-1.1
2017-11-30T02:39:33.739Z,-1.1
2017-11-30T02:40:53.499Z,-1.1
2017-11-30T02:42:15.827Z,-1.1
2017-11-30T02:43:35.576Z,-1.1
2017-11-30T02:44:57.833Z,-1.1
2017-11-30T02:46:22.629Z,-1.2
2017-11-30T02:47:44.893Z,-1.3
2017-11-30T02:49:04.630Z,-1.3
2017-11-30T02:50:24.372Z,-1.3
2017-11-30T02:51:44.092Z,-1.2
2017-11-30T02:53:06.372Z,-1.1
2017-11-30T02:54:28.624Z,-1.1
2017-11-30T02:55:50.927Z,-1.1
2017-11-30T02:57:10.685Z,-1.2
2017-11-30T02:58:30.424Z,-1.4
2017-11-30T02:59:50.237Z,-1.4
2017-11-30T03:01:10.002Z,-1.5
2017-11-30T03:02:29.723Z,-1.5
2017-11-30T03:03:57.086Z,-1.5
2017-11-30T03:05:16.830Z,-1.5
2017-11-30T03:06:36.602Z,-1.5
2017-11-30T03:07:56.372Z,-1.5
2017-11-30T03:09:18.648Z,-1.8
2017-11-30T03:10:38.419Z,-2.4
2017-11-30T03:12:00.686Z,-3.1
2017-11-30T03:13:20.447Z,-3.5
2017-11-30T03:14:47.786Z,-3.8
2017-11-30T03:16:10.093Z,-3.8
2017-11-30T03:17:32.334Z,-3.9
2017-11-30T03:18:57.177Z,-3.9
2017-11-30T03:20:16.886Z,-3.9
2017-11-30T03:21:44.200Z,-3.9
2017-11-30T03:23:03.919Z,-3.9
2017-11-30T03:24:23.639Z,-3.9
2017-11-30T03:25:43.372Z,-3.9
2017-11-30T03:27:03.109Z,-3.9
2017-11-30T03:28:22.827Z,-3.9
2017-11-30T03:29:42.548Z,-3.9
2017-11-30T03:31:04.822Z,-3.8
2017-11-30T03:32:24.611Z,-3.9
2017-11-30T03:33:46.920Z,-3.9
2017-11-30T03:35:11.700Z,-3.9
2017-11-30T03:36:31.415Z,-3.8
2017-11-30T03:37:53.675Z,-3.8
2017-11-30T03:39:15.927Z,-3.8
2017-11-30T03:40:35.632Z,-3.8
2017-11-30T03:41:55.431Z,-3.8
2017-11-30T03:43:17.692Z,-3.7
2017-11-30T03:44:39.963Z,-3.6
2017-11-30T03:45:59.714Z,-3.5
2017-11-30T03:47:19.431Z,-3.4
2017-11-30T03:48:41.750Z,-3.2
2017-11-30T03:50:01.476Z,-3
2017-11-30T03:51:21.263Z,-2.8
2017-11-30T03:52:56.194Z,-2.7
2017-11-30T03:54:18.512Z,-2.5
2017-11-30T03:55:40.758Z,-2.4
2017-11-30T03:57:00.487Z,-2.3
2017-11-30T03:58:22.773Z,-2.2
2017-11-30T03:59:45.061Z,-2.2
2017-11-30T04:01:07.299Z,-2.2
2017-11-30T04:02:27.021Z,-2.2
2017-11-30T04:03:46.753Z,-2.2
2017-11-30T04:05:09.065Z,-2.2
2017-11-30T04:06:28.789Z,-2.3
2017-11-30T04:07:51.082Z,-2.4
2017-11-30T04:09:15.862Z,-2.6
2017-11-30T04:10:38.145Z,-2.7
2017-11-30T04:12:02.918Z,-2.8
2017-11-30T04:13:27.696Z,-2.8
2017-11-30T04:14:52.491Z,-2.9
2017-11-30T04:16:14.780Z,-3
2017-11-30T04:17:37.025Z,-3
2017-11-30T04:18:56.783Z,-3
2017-11-30T04:20:16.496Z,-3
2017-11-30T04:21:38.761Z,-3
2017-11-30T04:23:01.006Z,-2.8
2017-11-30T04:24:20.788Z,-2.8
2017-11-30T04:25:40.499Z,-2.7
2017-11-30T04:27:00.246Z,-2.7
2017-11-30T04:28:20.009Z,-2.7
2017-11-30T04:29:42.311Z,-2.7
2017-11-30T04:31:02.047Z,-2.6
2017-11-30T04:32:26.843Z,-2.6
2017-11-30T04:33:49.114Z,-2.6
2017-11-30T04:35:11.365Z,-2.6
2017-11-30T04:36:36.200Z,-2.7
2017-11-30T04:37:55.937Z,-2.7
2017-11-30T04:39:15.700Z,-2.8
2017-11-30T04:40:35.424Z,-2.9
2017-11-30T04:41:55.175Z,-3
2017-11-30T04:43:14.940Z,-3.1
2017-11-30T04:44:34.733Z,-3.1
2017-11-30T04:46:07.089Z,-3
2017-11-30T04:47:26.800Z,-3
2017-11-30T04:48:46.573Z,-2.9
2017-11-30T04:50:06.307Z,-2.7
2017-11-30T04:51:33.615Z,-2.6
2017-11-30T04:52:53.336Z,-2.6
2017-11-30T04:54:18.136Z,-2.5
2017-11-30T04:55:37.855Z,-2.4
2017-11-30T04:56:57.577Z,-2.4
2017-11-30T04:58:19.901Z,-2.4
2017-11-30T04:59:42.173Z,-2.4
2017-11-30T05:01:04.473Z,-2.4
2017-11-30T05:02:24.194Z,-2.4
2017-11-30T05:03:43.987Z,-2.3
2017-11-30T05:05:06.256Z,-2.2
2017-11-30T05:06:38.690Z,-2.3
2017-11-30T05:08:11.056Z,-2.3
2017-11-30T05:09:38.376Z,-2.4
2017-11-30T05:11:03.147Z,-2.3
2017-11-30T05:12:22.912Z,-2.3
2017-11-30T05:13:42.662Z,-2.2
2017-11-30T05:15:02.375Z,-2.1
2017-11-30T05:16:22.111Z,-2.1
2017-11-30T05:17:41.828Z,-2
2017-11-30T05:19:01.541Z,-2
2017-11-30T05:20:26.353Z,-2
2017-11-30T05:21:51.148Z,-2
2017-11-30T05:23:10.919Z,-2.1
2017-11-30T05:24:30.631Z,-2.2
2017-11-30T05:25:52.866Z,-2.3
2017-11-30T05:27:12.613Z,-2.4
2017-11-30T05:28:34.886Z,-2.6
2017-11-30T05:29:57.135Z,-2.7
2017-11-30T05:31:16.893Z,-2.8
2017-11-30T05:32:36.662Z,-2.9
2017-11-30T05:33:58.909Z,-3
2017-11-30T05:35:18.629Z,-3
2017-11-30T05:36:38.352Z,-3
2017-11-30T05:37:58.092Z,-2.9
2017-11-30T05:39:17.828Z,-2.7
2017-11-30T05:40:52.786Z,-2.6
2017-11-30T05:42:12.507Z,-2.4
2017-11-30T05:43:39.867Z,-2.2
2017-11-30T05:45:02.115Z,-2.2
2017-11-30T05:46:24.421Z,-2.2
2017-11-30T05:47:44.207Z,-2.2
2017-11-30T05:49:03.942Z,-2.2
2017-11-30T05:50:23.691Z,-2.2
2017-11-30T05:51:45.941Z,-2.1
2017-11-30T05:53:05.697Z,-2.1
2017-11-30T05:54:25.433Z,-2.1
2017-11-30T05:55:45.155Z,-2.1
2017-11-30T05:57:15.018Z,-2
2017-11-30T05:58:34.768Z,-1.8
2017-11-30T05:59:54.592Z,-1.6
2017-11-30T06:01:16.844Z,-1.5
2017-11-30T06:02:36.550Z,-1.4
2017-11-30T06:03:56.271Z,-1.4
2017-11-30T06:05:15.997Z,-1.3
2017-11-30T06:06:35.728Z,-1.2
2017-11-30T06:07:55.433Z,-1.2
2017-11-30T06:09:17.715Z,-1.2
2017-11-30T06:10:37.439Z,-1.2
2017-11-30T06:11:57.159Z,-1.2
2017-11-30T06:13:19.438Z,-1.1
2017-11-30T06:14:41.686Z,-1
2017-11-30T06:16:01.471Z,-0.9
2017-11-30T06:17:23.705Z,-0.9
2017-11-30T06:18:43.431Z,-0.9
2017-11-30T06:20:03.147Z,-1.1
2017-11-30T06:21:22.914Z,-1.3
2017-11-30T06:22:45.156Z,-1.3
2017-11-30T06:24:04.883Z,-1.2
2017-11-30T06:25:32.188Z,-1
2017-11-30T06:26:54.519Z,-1.3
2017-11-30T06:28:16.767Z,-1.2
2017-11-30T06:29:36.558Z,-0.9
2017-11-30T06:30:58.861Z,-0.6
2017-11-30T06:32:18.610Z,-0.5
2017-11-30T06:33:43.377Z,-0.6
2017-11-30T06:35:05.678Z,-0.5
2017-11-30T06:36:27.931Z,-0.6
2017-11-30T06:37:50.207Z,-0.6
2017-11-30T06:39:09.945Z,-0.6
2017-11-30T06:40:29.702Z,-0.5
2017-11-30T06:41:51.962Z,-0.5
2017-11-30T06:43:16.748Z,-0.5
2017-11-30T06:44:46.587Z,-0.5
2017-11-30T06:46:06.307Z,-0.4
2017-11-30T06:47:26.087Z,-0.3
2017-11-30T06:48:45.826Z,-0.2
2017-11-30T06:50:05.590Z,-0.2
2017-11-30T06:51:32.909Z,-0.1
2017-11-30T06:53:00.284Z,0
2017-11-30T06:54:22.531Z,0
2017-11-30T06:55:44.765Z,0.1
2017-11-30T06:57:12.085Z,0.2
2017-11-30T06:58:34.356Z,0.2
2017-11-30T06:59:56.606Z,0.2
2017-11-30T07:01:16.295Z,0.3
2017-11-30T07:02:36.027Z,0.4
2017-11-30T07:03:55.726Z,0.5
2017-11-30T07:05:17.964Z,0.6
2017-11-30T07:06:37.651Z,0.6
2017-11-30T07:07:57.397Z,0.5
2017-11-30T07:09:27.267Z,0.5
2017-11-30T07:10:49.535Z,0.5
2017-11-30T07:12:09.256Z,0.5
2017-11-30T07:13:31.493Z,0.5
2017-11-30T07:14:51.185Z,0.5
2017-11-30T07:16:13.448Z,0.5
2017-11-30T07:17:40.754Z,0.4
2017-11-30T07:19:00.471Z,0.4
2017-11-30T07:20:20.178Z,0.3
2017-11-30T07:21:39.895Z,0.4
2017-11-30T07:23:04.685Z,0.3
2017-11-30T07:24:24.447Z,0.4
2017-11-30T07:25:44.175Z,0.4
2017-11-30T07:27:03.921Z,0.4
2017-11-30T07:28:23.635Z,0.6
2017-11-30T07:29:43.359Z,0.7
2017-11-30T07:31:08.117Z,0.9
2017-11-30T07:32:30.388Z,0.9
2017-11-30T07:33:50.107Z,1
2017-11-30T07:35:09.818Z,1
2017-11-30T07:36:29.535Z,1.1
2017-11-30T07:37:49.255Z,1.2
2017-11-30T07:39:11.482Z,1.1
2017-11-30T07:40:51.469Z,1.1
2017-11-30T07:42:11.235Z,1.2
2017-11-30T07:43:30.960Z,1.3
2017-11-30T07:44:58.305Z,1.4
2017-11-30T07:46:18.004Z,1.3
2017-11-30T07:47:37.705Z,1.3
2017-11-30T07:49:07.600Z,1.4
2017-11-30T07:50:27.296Z,1.5
2017-11-30T07:51:47.046Z,1.5
2017-11-30T07:53:11.831Z,1.6
2017-11-30T07:54:34.145Z,1.6
2017-11-30T07:56:01.441Z,1.7
2017-11-30T07:57:21.148Z,1.7
2017-11-30T07:58:40.842Z,1.9
2017-11-30T08:00:00.569Z,1.8
2017-11-30T08:01:22.816Z,1.9
2017-11-30T08:02:42.565Z,1.9
2017-11-30T08:04:02.257Z,1.8
2017-11-30T08:05:21.974Z,1.7
2017-11-30T08:06:41.676Z,1.6
2017-11-30T08:08:01.373Z,1.7
2017-11-30T08:09:23.608Z,1.6
2017-11-30T08:10:43.368Z,1.6
2017-11-30T08:12:08.185Z,1.6
2017-11-30T08:13:27.888Z,1.7
2017-11-30T08:14:47.595Z,1.6
2017-11-30T08:16:07.308Z,1.6
2017-11-30T08:17:29.593Z,1.6
2017-11-30T08:18:56.934Z,1.7
2017-11-30T08:20:16.626Z,1.7
2017-11-30T08:21:46.502Z,1.6
2017-11-30T08:23:06.203Z,1.6
2017-11-30T08:24:28.513Z,1.6
2017-11-30T08:25:53.294Z,1.6
2017-11-30T08:27:18.125Z,1.6
2017-11-30T08:28:42.888Z,1.6
2017-11-30T08:30:02.612Z,1.6
2017-11-30T08:31:22.327Z,1.7
2017-11-30T08:32:42.064Z,1.7
2017-11-30T08:34:01.811Z,1.8
2017-11-30T08:35:21.503Z,1.9
2017-11-30T08:36:41.229Z,1.1
2017-11-30T08:38:00.950Z,0.5
2017-11-30T08:39:33.370Z,0.1
2017-11-30T08:40:53.141Z,0
2017-11-30T08:42:12.840Z,0.1
2017-11-30T08:43:35.116Z,0.5
2017-11-30T08:44:54.836Z,1.1
2017-11-30T08:46:17.081Z,1.5
2017-11-30T08:47:41.888Z,1.7
2017-11-30T08:49:01.627Z,2
2017-11-30T08:50:21.322Z,2.2
2017-11-30T08:51:41.073Z,2.5
2017-11-30T08:53:00.828Z,2.7
2017-11-30T08:54:23.115Z,2.7
2017-11-30T08:55:47.870Z,2.9
2017-11-30T08:57:12.649Z,3.1
2017-11-30T08:58:34.904Z,3.3
2017-11-30T08:59:54.668Z,3
2017-11-30T09:01:16.892Z,2.4
2017-11-30T09:02:36.638Z,2.4
2017-11-30T09:03:56.369Z,2.6
2017-11-30T09:05:18.676Z,2.9
2017-11-30T09:06:38.392Z,3.1
2017-11-30T09:07:58.090Z,3.4
2017-11-30T09:09:20.400Z,3.7
2017-11-30T09:10:42.673Z,3.8
2017-11-30T09:12:02.434Z,4
2017-11-30T09:13:22.162Z,4.1
2017-11-30T09:14:44.387Z,4.1
2017-11-30T09:16:04.129Z,4.2
2017-11-30T09:17:23.850Z,4.1
2017-11-30T09:18:43.575Z,4
2017-11-30T09:20:03.322Z,4.3
2017-11-30T09:21:30.628Z,4.4
2017-11-30T09:22:50.323Z,4.5
2017-11-30T09:24:10.056Z,4.5
2017-11-30T09:25:34.842Z,4.3
2017-11-30T09:26:57.120Z,4.4
2017-11-30T09:28:19.351Z,4.5
2017-11-30T09:29:46.675Z,4.6
2017-11-30T09:31:08.933Z,4.5
2017-11-30T09:32:33.795Z,4.6
2017-11-30T09:33:53.523Z,4.8
2017-11-30T09:35:13.251Z,4.7
2017-11-30T09:36:32.955Z,4.8
2017-11-30T09:37:55.255Z,4.9
2017-11-30T09:39:14.947Z,5
2017-11-30T09:40:34.705Z,5
2017-11-30T09:41:54.465Z,4.8
2017-11-30T09:43:14.184Z,4.7
2017-11-30T09:44:36.436Z,4.5
2017-11-30T09:45:58.687Z,4.5
2017-11-30T09:47:18.422Z,4.5
2017-11-30T09:48:43.279Z,3.9
2017-11-30T09:50:05.514Z,3.9
2017-11-30T09:51:25.212Z,4.1
2017-11-30T09:52:44.915Z,4.1
2017-11-30T09:54:07.158Z,4.2
2017-11-30T09:55:26.856Z,4.4
2017-11-30T09:56:49.081Z,4.3
2017-11-30T09:58:13.953Z,4.5
2017-11-30T09:59:36.191Z,4.4
2017-11-30T10:00:58.449Z,4.4
2017-11-30T10:02:23.265Z,4.4
2017-11-30T10:03:42.984Z,4.3
2017-11-30T10:05:07.965Z,4.3
2017-11-30T10:06:27.686Z,4.4
2017-11-30T10:07:47.378Z,4.7
2017-11-30T10:09:09.653Z,5
2017-11-30T10:10:29.424Z,5.2
2017-11-30T10:11:49.161Z,5.4
2017-11-30T10:13:11.381Z,5.6
2017-11-30T10:14:33.643Z,5.7
2017-11-30T10:15:53.426Z,5.8
2017-11-30T10:17:13.201Z,5.8
2017-11-30T10:18:32.889Z,5.8
2017-11-30T10:19:55.172Z,5.8
2017-11-30T10:21:19.954Z,5.9
2017-11-30T10:22:39.646Z,5.9
2017-11-30T10:23:59.354Z,5.9
2017-11-30T10:25:19.105Z,6
2017-11-30T10:26:38.839Z,6
2017-11-30T10:27:58.564Z,5.9
2017-11-30T10:29:18.287Z,5.8
2017-11-30T10:30:38.016Z,5.7
2017-11-30T10:32:02.847Z,5.7
2017-11-30T10:33:22.582Z,5.7
2017-11-30T10:34:42.282Z,5.5
2017-11-30T10:36:04.563Z,5.6
2017-11-30T10:37:26.809Z,5.4
2017-11-30T10:38:49.040Z,5.5
2017-11-30T10:40:13.800Z,5.5
2017-11-30T10:41:38.618Z,5.5
2017-11-30T10:43:00.881Z,5.2
2017-11-30T10:44:20.618Z,5.2
2017-11-30T10:45:45.392Z,5.1
2017-11-30T10:47:07.628Z,4.8
2017-11-30T10:48:32.428Z,4.6
2017-11-30T10:49:52.128Z,4.3
2017-11-30T10:51:11.871Z,4.2
2017-11-30T10:52:36.618Z,4.2
2017-11-30T10:53:56.314Z,4.4
2017-11-30T10:55:18.573Z,4.6
2017-11-30T10:56:43.401Z,4.6
2017-11-30T10:58:03.139Z,4.5
2017-11-30T10:59:22.881Z,4.4
2017-11-30T11:00:42.577Z,4.4
2017-11-30T11:02:07.438Z,4.5
2017-11-30T11:03:32.204Z,4.5
2017-11-30T11:04:54.451Z,4.6
2017-11-30T11:06:16.691Z,4.7
2017-11-30T11:07:36.403Z,4.7
2017-11-30T11:08:56.099Z,4.7
2017-11-30T11:10:15.868Z,4.9
2017-11-30T11:11:35.578Z,5.2
2017-11-30T11:13:00.370Z,5.5
2017-11-30T11:14:22.630Z,5.6
2017-11-30T11:15:42.416Z,5.5
2017-11-30T11:17:02.136Z,5.2
2017-11-30T11:18:26.906Z,5
2017-11-30T11:19:46.608Z,5.1
2017-11-30T11:21:06.332Z,4.9
2017-11-30T11:22:31.099Z,4.9
2017-11-30T11:23:55.863Z,5
2017-11-30T11:25:15.584Z,5
2017-11-30T11:26:37.884Z,4.8
2017-11-30T11:27:57.654Z,4.8
2017-11-30T11:29:19.904Z,4.7
2017-11-30T11:30:44.695Z,4.7
2017-11-30T11:32:04.410Z,4.3
2017-11-30T11:33:24.112Z,3.9
2017-11-30T11:34:43.829Z,3.7
2017-11-30T11:36:03.553Z,3.7
2017-11-30T11:37:33.420Z,3.6
2017-11-30T11:38:58.234Z,3.4
2017-11-30T11:40:17.978Z,3.1
2017-11-30T11:41:37.699Z,2.9
2017-11-30T11:42:59.931Z,2.8
2017-11-30T11:44:19.685Z,2.8
2017-11-30T11:45:39.412Z,2.6
2017-11-30T11:46:59.168Z,2.9
2017-11-30T11:48:21.418Z,2.9
2017-11-30T11:49:51.292Z,2.9
2017-11-30T11:51:10.986Z,3
2017-11-30T11:52:30.752Z,3.3
2017-11-30T11:53:50.468Z,3.5
2017-11-30T11:55:10.158Z,3.6
2017-11-30T11:56:29.852Z,3.6
2017-11-30T11:57:57.161Z,3.4
2017-11-30T11:59:16.886Z,3.2
2017-11-30T12:00:44.195Z,3
2017-11-30T12:02:03.949Z,2.7
2017-11-30T12:03:23.654Z,2.7
2017-11-30T12:04:43.398Z,2.9
2017-11-30T12:06:10.712Z,3
2017-11-30T12:07:32.957Z,3.2
2017-11-30T12:08:52.683Z,3.3
2017-11-30T12:10:17.463Z,3.6
2017-11-30T12:11:39.719Z,3.8
2017-11-30T12:12:59.452Z,3.6
2017-11-30T12:14:19.206Z,3.4
2017-11-30T12:15:43.995Z,3.2
2017-11-30T12:17:03.692Z,3.1
2017-11-30T12:18:23.392Z,3.3
2017-11-30T12:19:43.122Z,3.3
2017-11-30T12:21:02.876Z,3.3
2017-11-30T12:22:22.614Z,3.4
2017-11-30T12:23:42.307Z,3.5
2017-11-30T12:25:02.064Z,3.6
2017-11-30T12:26:21.788Z,3.8
2017-11-30T12:27:46.570Z,4.1
2017-11-30T12:29:06.295Z,4.2
2017-11-30T12:30:26.029Z,4.3
2017-11-30T12:31:50.846Z,4.6
2017-11-30T12:33:15.607Z,4.1
2017-11-30T12:34:37.857Z,3.8
2017-11-30T12:35:57.593Z,3.7
2017-11-30T12:37:17.314Z,3.8
2017-11-30T12:38:37.054Z,3.8
2017-11-30T12:39:56.752Z,3.8
2017-11-30T12:41:19.034Z,3.6
2017-11-30T12:42:38.799Z,3.6
2017-11-30T12:44:03.556Z,3.7
2017-11-30T12:45:25.795Z,4.1
2017-11-30T12:46:45.491Z,4.2
2017-11-30T12:48:10.256Z,4.1
2017-11-30T12:49:29.982Z,4.1
2017-11-30T12:50:52.224Z,4.1
2017-11-30T12:52:14.514Z,4.2
2017-11-30T12:53:34.222Z,4.2
2017-11-30T12:54:53.945Z,4.2
2017-11-30T12:56:16.183Z,4.2
2017-11-30T12:57:41.006Z,3.9
2017-11-30T12:59:03.251Z,3.9
2017-11-30T13:00:25.483Z,4.1
2017-11-30T13:01:45.214Z,3.9
2017-11-30T13:03:07.461Z,3.8
2017-11-30T13:04:27.167Z,3.8
2017-11-30T13:05:51.994Z,3.8
2017-11-30T13:07:11.693Z,3.8
2017-11-30T13:08:33.948Z,3.6
2017-11-30T13:09:53.643Z,3.2
2017-11-30T13:11:18.413Z,3.2
2017-11-30T13:12:40.669Z,3.3
2017-11-30T13:14:08.026Z,2.9
2017-11-30T13:15:35.318Z,3
2017-11-30T13:16:55.004Z,3.2
2017-11-30T13:18:14.693Z,3.3
2017-11-30T13:19:39.451Z,3.2
2017-11-30T13:20:59.167Z,3.3
2017-11-30T13:22:21.405Z,3.6
2017-11-30T13:23:46.150Z,3.6
2017-11-30T13:25:05.842Z,3.6
2017-11-30T13:26:28.129Z,3.6
2017-11-30T13:27:47.852Z,3.5
2017-11-30T13:29:07.641Z,3.7
2017-11-30T13:30:27.408Z,3.7
2017-11-30T13:31:57.270Z,4.1
2017-11-30T13:33:19.539Z,4.4
2017-11-30T13:34:39.234Z,4.7
2017-11-30T13:36:01.469Z,4.3
2017-11-30T13:37:23.700Z,4.3
2017-11-30T13:38:50.981Z,4.2
2017-11-30T13:40:10.707Z,4.5
2017-11-30T13:41:32.975Z,4.6
2017-11-30T13:43:02.826Z,4.5
2017-11-30T13:44:22.542Z,4.1
2017-11-30T13:45:42.270Z,4.2
2017-11-30T13:47:01.964Z,4.6
2017-11-30T13:48:21.720Z,4.7
2017-11-30T13:49:41.415Z,5
2017-11-30T13:51:01.143Z,5.4
2017-11-30T13:52:20.884Z,5.4
2017-11-30T13:53:50.707Z,5.5
2017-11-30T13:55:12.957Z,5.3
2017-11-30T13:56:32.701Z,5.5
2017-11-30T13:57:54.926Z,5.4
2017-11-30T13:59:14.674Z,5.7
2017-11-30T14:00:34.372Z,5.7
2017-11-30T14:02:01.654Z,5.9
2017-11-30T14:03:21.357Z,6.2
2017-11-30T14:04:46.134Z,6.1
2017-11-30T14:06:08.371Z,5.8
2017-11-30T14:07:28.066Z,5.9
2017-11-30T14:08:50.340Z,5.8
2017-11-30T14:10:15.136Z,5.6
2017-11-30T14:11:34.851Z,5.2
2017-11-30T14:12:54.562Z,5
2017-11-30T14:14:14.247Z,4.5
2017-11-30T14:15:34.011Z,3.2
2017-11-30T14:16:53.707Z,2.2
2017-11-30T14:18:13.449Z,1.7
2017-11-30T14:19:35.680Z,1.3
2017-11-30T14:20:57.931Z,1.1
2017-11-30T14:22:22.729Z,0.9
2017-11-30T14:23:42.466Z,0.8
2017-11-30T14:25:02.187Z,0.8
2017-11-30T14:26:21.899Z,0.7
2017-11-30T14:27:41.636Z,0.6
2017-11-30T14:29:03.864Z,0.5
2017-11-30T14:30:26.152Z,0.4
2017-11-30T14:31:48.443Z,0.4
2017-11-30T14:33:10.668Z,0.4
2017-11-30T14:34:30.377Z,0.3
2017-11-30T14:35:50.074Z,0.2
2017-11-30T14:37:17.422Z,0.2
2017-11-30T14:38:37.185Z,0.1
2017-11-30T14:39:56.886Z,0.1
2017-11-30T14:41:16.581Z,0
2017-11-30T14:42:41.403Z,0.1
2017-11-30T14:44:01.140Z,0
2017-11-30T14:45:20.852Z,0
2017-11-30T14:46:43.151Z,0
2017-11-30T14:48:10.484Z,0
2017-11-30T14:49:42.890Z,0
2017-11-30T14:51:02.650Z,0
2017-11-30T14:52:27.473Z,0.1
2017-11-30T14:53:49.722Z,0.2
2017-11-30T14:55:09.419Z,0.3
2017-11-30T14:56:29.124Z,0.5
2017-11-30T14:57:51.370Z,0.4
2017-11-30T14:59:11.111Z,0.5
2017-11-30T15:00:33.364Z,0.5
2017-11-30T15:01:53.055Z,0.6
2017-11-30T15:03:12.746Z,0.6
2017-11-30T15:04:32.462Z,0.6
2017-11-30T15:05:54.695Z,0.6
2017-11-30T15:07:14.377Z,0.6
2017-11-30T15:08:34.080Z,0.6
2017-11-30T15:09:58.885Z,0.6
2017-11-30T15:11:38.850Z,0.6
2017-11-30T15:13:03.610Z,0.6
2017-11-30T15:14:33.432Z,0.6
2017-11-30T15:15:55.712Z,0.6
2017-11-30T15:17:20.456Z,0.6
2017-11-30T15:18:40.155Z,0.5
2017-11-30T15:20:04.944Z,0.5
2017-11-30T15:21:24.646Z,0.5
2017-11-30T15:22:44.368Z,0.4
2017-11-30T15:24:04.110Z,0.4
2017-11-30T15:25:23.866Z,0.3
2017-11-30T15:26:43.585Z,0.3
2017-11-30T15:28:03.288Z,0.4
2017-11-30T15:29:25.556Z,0.4
2017-11-30T15:30:45.320Z,0.4
2017-11-30T15:32:05.015Z,0.4
2017-11-30T15:33:27.260Z,0.4
2017-11-30T15:34:46.983Z,0.4
2017-11-30T15:36:11.782Z,0.4
2017-11-30T15:37:34.016Z,0.4
2017-11-30T15:38:53.755Z,0.4
2017-11-30T15:40:18.506Z,0.4
2017-11-30T15:41:38.196Z,0.4
2017-11-30T15:42:57.888Z,0.4
2017-11-30T15:44:17.580Z,0.3
2017-11-30T15:45:37.304Z,0.4
2017-11-30T15:46:57.094Z,0.3
2017-11-30T15:48:16.823Z,0.3
2017-11-30T15:49:36.589Z,0.3
2017-11-30T15:50:58.886Z,0.3
2017-11-30T15:52:18.588Z,0.2
2017-11-30T15:53:40.833Z,0.2
2017-11-30T15:55:00.512Z,0.2
2017-11-30T15:56:35.422Z,0.1
2017-11-30T15:58:00.188Z,0.1
2017-11-30T15:59:22.461Z,0.1
2017-11-30T16:00:44.726Z,0.1
2017-11-30T16:02:07.010Z,0.1
2017-11-30T16:03:26.750Z,0.1
2017-11-30T16:04:48.984Z,0.1
2017-11-30T16:06:08.679Z,0.1
2017-11-30T16:07:28.381Z,0.1
2017-11-30T16:08:48.079Z,0.2
2017-11-30T16:10:07.822Z,0.2
2017-11-30T16:11:30.045Z,0.2
2017-11-30T16:12:49.798Z,0.2
2017-11-30T16:14:09.542Z,0.1
2017-11-30T16:15:31.813Z,0.1
2017-11-30T16:16:51.586Z,0.2
2017-11-30T16:18:11.307Z,0.3
2017-11-30T16:19:31.125Z,0.3
2017-11-30T16:20:50.851Z,0.3
2017-11-30T16:22:10.549Z,0.3
2017-11-30T16:23:30.250Z,0.3
2017-11-30T16:24:49.958Z,0.3
2017-11-30T16:26:09.674Z,0.2
2017-11-30T16:27:29.371Z,0.2
2017-11-30T16:28:49.122Z,0.1
2017-11-30T16:30:13.910Z,0.1
2017-11-30T16:31:36.166Z,0
2017-11-30T16:32:58.398Z,0.1
2017-11-30T16:34:25.686Z,0.2
2017-11-30T16:35:50.499Z,0.2
2017-11-30T16:37:17.830Z,0.3
2017-11-30T16:38:40.090Z,0.4
2017-11-30T16:40:02.322Z,0.4
2017-11-30T16:41:22.074Z,0.3
2017-11-30T16:42:41.797Z,0.3
2017-11-30T16:44:01.516Z,0.2
2017-11-30T16:45:23.745Z,0.2
2017-11-30T16:46:43.452Z,0
2017-11-30T16:48:08.245Z,0
2017-11-30T16:49:28.030Z,0
2017-11-30T16:50:47.729Z,-0.1
2017-11-30T16:52:15.033Z,-0.2
2017-11-30T16:53:39.840Z,-0.2
2017-11-30T16:54:59.562Z,-0.2
2017-11-30T16:56:26.939Z,-0.3
2017-11-30T16:57:46.690Z,-0.3
2017-11-30T16:59:14.027Z,-0.4
2017-11-30T17:00:41.392Z,-0.4
2017-11-30T17:02:01.102Z,-0.4
2017-11-30T17:03:20.874Z,-0.5
2017-11-30T17:04:43.172Z,-0.6
2017-11-30T17:06:05.475Z,-0.6
2017-11-30T17:07:25.200Z,-0.5
2017-11-30T17:08:44.919Z,-0.3
2017-11-30T17:10:04.627Z,-0.3
2017-11-30T17:11:26.923Z,-0.4
2017-11-30T17:12:56.785Z,-0.4
2017-11-30T17:14:19.033Z,-0.4
2017-11-30T17:15:43.826Z,-0.5
2017-11-30T17:17:03.550Z,-0.5
2017-11-30T17:18:28.332Z,-0.5
2017-11-30T17:19:50.656Z,-0.6
2017-11-30T17:21:10.364Z,-0.6
2017-11-30T17:22:35.131Z,-0.6
2017-11-30T17:23:54.899Z,-0.6
2017-11-30T17:25:14.643Z,-0.6
2017-11-30T17:26:34.426Z,-0.6
2017-11-30T17:27:54.164Z,-0.6
2017-11-30T17:29:13.872Z,-0.5
2017-11-30T17:30:36.167Z,-0.5
2017-11-30T17:32:06.026Z,-0.5
2017-11-30T17:33:28.316Z,-0.5
2017-11-30T17:34:48.032Z,-0.5
2017-11-30T17:36:07.751Z,-0.5
2017-11-30T17:37:27.473Z,-0.5
2017-11-30T17:38:49.726Z,-0.5
2017-11-30T17:40:09.486Z,-0.5
2017-11-30T17:41:34.269Z,-0.6
2017-11-30T17:42:53.984Z,-0.6
2017-11-30T17:44:21.305Z,-0.7
2017-11-30T17:45:48.600Z,-0.7
2017-11-30T17:47:10.835Z,-0.7
2017-11-30T17:48:30.553Z,-0.7
2017-11-30T17:49:50.284Z,-0.8
2017-11-30T17:51:12.544Z,-0.9
2017-11-30T17:52:32.271Z,-1
2017-11-30T17:53:52.038Z,-1.2
2017-11-30T17:55:14.279Z,-1.3
2017-11-30T17:56:34.023Z,-1.4
2017-11-30T17:58:01.351Z,-1.4
2017-11-30T17:59:33.752Z,-1.4
2017-11-30T18:01:06.144Z,-1.4
2017-11-30T18:02:28.426Z,-1.5
2017-11-30T18:03:48.145Z,-1.6
2017-11-30T18:05:10.438Z,-1.6
2017-11-30T18:06:32.703Z,-1.6
2017-11-30T18:07:57.476Z,-1.6
2017-11-30T18:09:17.198Z,-1.6
2017-11-30T18:10:36.943Z,-1.7
2017-11-30T18:12:09.383Z,-1.8
2017-11-30T18:13:31.685Z,-1.8
2017-11-30T18:14:51.433Z,-1.8
2017-11-30T18:16:11.250Z,-1.9
2017-11-30T18:17:30.975Z,-2
2017-11-30T18:18:53.225Z,-2
2017-11-30T18:20:33.211Z,-1.9
2017-11-30T18:21:58.002Z,-1.9
2017-11-30T18:23:20.306Z,-1.9
2017-11-30T18:24:40.032Z,-1.8
2017-11-30T18:26:02.276Z,-1.8
2017-11-30T18:27:27.113Z,-1.7
2017-11-30T18:28:49.359Z,-1.8
2017-11-30T18:30:09.090Z,-1.8
2017-11-30T18:31:31.421Z,-1.8
2017-11-30T18:32:53.690Z,-1.8
2017-11-30T18:34:16.057Z,-1.9
2017-11-30T18:35:35.773Z,-1.8